Flight Track Log - Related Links

Times and Time Zones

All times are in EDT time to prevent confusion due to time zone crossing. See the EGF2829 flight status page for this flight to view local times or setup timezone preferences in your user account.

Time Position Orientation Groundspeed Altitude Reporting Facility
EDT Latitude Longitude Course Direction KTS MPH feet Rate Location/Type
Thu 04:30:10 PM 42.0264 -88.0319 270° West 209 241 4,200  Level Chicago Center
Thu 04:31:00 PM 42.0353 -88.2713 282° West  Level Estimated
Thu 04:31:12 PM 42.0567 -88.1317 292° West 230 265 5,000  Level Chicago Center
Thu 04:32:00 PM 42.0621 -88.3900 287° West  Level FlightAware Approximate
Thu 04:32:15 PM 42.0700 -88.2319 280° West 258 297 6,900  Level Chicago Center
Thu 04:33:00 PM 42.0793 -88.5118 289° West  Level Estimated
Thu 04:33:17 PM 42.0864 -88.3317 283° West 270 311 9,200  Level Chicago Center
Thu 04:34:00 PM 42.0964 -88.6337 270° West  Level Estimated
Thu 04:34:19 PM 42.1036 -88.4372 282° West 286 329 11,300  Level Chicago Center
Thu 04:35:00 PM 42.1134 -88.7557 270° West  Level Estimated
Thu 04:35:21 PM 42.1219 -88.5461 283° West 297 342 12,800  Level Chicago Center
Thu 04:36:23 PM 42.1456 -88.6958 282° West 338 389 14,500 1,548 Climbing Chicago Center
Thu 04:37:25 PM 42.1650 -88.8222 282° West 346 398 16,000 1,500 Climbing Chicago Center
Thu 04:38:27 PM 42.1600 -88.9558 267° West 340 391 17,600 1,742 Climbing Chicago Center
Thu 04:39:29 PM 42.1567 -89.0861 268° West 346 398 19,600 1,694 Climbing Chicago Center
Thu 04:40:31 PM 42.1533 -89.2172 268° West 349 402 21,100 1,452 Climbing Chicago Center
Thu 04:41:33 PM 42.1500 -89.3506 268° West 354 407 22,600 1,355 Climbing Chicago Center
Thu 04:42:35 PM 42.1456 -89.4861 268° West 359 413 23,900 672 Climbing Chicago Center
Thu 04:43:38 PM 42.1422 -89.6575 269° West 385 443 24,000 48 Climbing Chicago Center
Thu 04:44:40 PM 42.1383 -89.8022 268° West 387 445 24,000  Level Chicago Center
Thu 04:45:42 PM 42.1458 -89.9336 274° West 401 461 24,000  Level Chicago Center
Thu 04:46:44 PM 42.1794 -90.1103 284° West 410 472 24,000  Level Chicago Center
Thu 04:47:46 PM 42.2036 -90.2500 283° West 392 451 24,000 -387 Level Chicago Center
Thu 04:48:48 PM 42.2242 -90.3742 283° West 347 399 23,200 -1,065 Descending Chicago Center
Thu 04:49:50 PM 42.2450 -90.4936 283° West 334 384 21,800 -1,355 Descending Chicago Center
Thu 04:50:52 PM 42.2661 -90.6139 283° West 332 382 20,400 -1,500 Descending Chicago Center
Thu 04:51:54 PM 42.2933 -90.7681 283° West 350 403 18,700 -1,790 Descending Chicago Center
Thu 04:52:56 PM 42.3158 -90.8997 283° West 359 413 16,700 -1,680 Descending Chicago Center
Thu 04:53:59 PM 42.3383 -91.0325 283° West 363 418 15,200 -1,440 Descending Chicago Center
Thu 04:55:01 PM 42.3603 -91.1633 283° West 361 415 13,700 -1,452 Descending Chicago Center
Thu 04:56:03 PM 42.3806 -91.2889 282° West 349 402 12,200 -1,306 Descending Chicago Center
Thu 04:57:05 PM 42.4044 -91.4383 282° West 342 394 11,000 -581 Descending Chicago Center
Thu 04:58:07 PM 42.4236 -91.5597 282° West 333 383 11,000  Level Chicago Center
Thu 04:59:09 PM 42.4447 -91.6842 283° West 337 388 11,000 -145 Level Chicago Center
Thu 05:00:11 PM 42.4550 -91.8097 276° West 337 388 10,700 -484 Descending Chicago Center
Thu 05:01:13 PM 42.4539 -91.9200 269° West 316 364 10,000 -1,306 Descending Chicago Center
Thu 05:02:15 PM 42.4511 -92.0061 268° West 264 304 8,000 -2,129 Descending Chicago Center
Thu 05:03:17 PM 42.4506 -92.1047 270° West 231 266 5,600 -2,112 Descending Chicago Center
Thu 05:04:20 PM 42.4556 -92.1883 275° West 225 259 3,600 -1,296 Descending Chicago Center
Thu 05:05:22 PM 42.4794 -92.2561 296° West 211 243 2,900 -629 Descending Chicago Center
Thu 05:06:24 PM 42.5069 -92.3094 305° West 188 216 2,300 -677 Descending Chicago Center
Thu 05:07:26 PM 42.5314 -92.3522 308° West 166 191 1,500 -532 Descending Chicago Center
Thu 05:08:28 PM 42.5581 -92.3989 308° West 156 180 1,200 -290 Descending Chicago Center
Thu 05:10:00 PM 42.5500 -92.4000 289° West  Level FlightAware Approximate
Thu 05:17:00 PM 42.5571 -92.4003 289° West  Level Estimated

Login

Don't have an account? Register now (free) for customized features, flight alerts, and more!